createdAt,value
2024-01-31T00:01:31.984Z,22.67
2024-01-31T00:04:00.294Z,19.55
2024-01-31T00:06:28.535Z,22.70
2024-01-31T00:08:58.088Z,27.35
2024-01-31T00:11:27.018Z,13.80
2024-01-31T00:13:55.022Z,20.63
2024-01-31T00:16:23.857Z,18.13
2024-01-31T00:18:52.311Z,19.95
2024-01-31T00:21:20.545Z,22.52
2024-01-31T00:23:48.702Z,23.83
2024-01-31T00:26:16.836Z,13.02
2024-01-31T00:28:45.159Z,14.68
2024-01-31T00:31:13.629Z,13.75
2024-01-31T00:33:41.675Z,16.00
2024-01-31T00:36:09.993Z,12.18
2024-01-31T00:38:37.841Z,20.17
2024-01-31T00:41:07.542Z,16.17
2024-01-31T00:43:35.713Z,8.25
2024-01-31T00:46:08.340Z,15.82
2024-01-31T00:48:36.893Z,8.95
2024-01-31T00:51:05.285Z,10.90
2024-01-31T00:53:33.224Z,8.65
2024-01-31T00:56:01.126Z,10.25
2024-01-31T00:58:29.128Z,10.30
2024-01-31T01:00:57.354Z,5.00
2024-01-31T01:03:25.363Z,11.68
2024-01-31T01:05:53.338Z,11.10
2024-01-31T01:08:21.548Z,10.50
2024-01-31T01:10:49.602Z,8.43
2024-01-31T01:13:17.599Z,7.88
2024-01-31T01:15:45.924Z,4.93
2024-01-31T01:18:15.439Z,12.77
2024-01-31T01:20:43.770Z,6.25
2024-01-31T01:23:12.892Z,6.35
2024-01-31T01:25:40.872Z,5.50
2024-01-31T01:28:08.886Z,5.07
2024-01-31T01:30:37.122Z,4.25
2024-01-31T01:33:05.553Z,9.55
2024-01-31T01:35:34.076Z,7.78
2024-01-31T01:38:03.975Z,6.95
2024-01-31T01:40:33.581Z,3.80
2024-01-31T01:43:01.603Z,3.33
2024-01-31T01:45:30.780Z,8.82
2024-01-31T01:47:58.998Z,6.75
2024-01-31T01:50:27.047Z,5.70
2024-01-31T01:52:55.110Z,4.47
2024-01-31T01:55:23.212Z,5.95
2024-01-31T01:57:51.546Z,14.93
2024-01-31T02:00:21.009Z,13.32
2024-01-31T02:02:50.829Z,9.13
2024-01-31T02:05:19.960Z,13.25
2024-01-31T02:07:48.556Z,4.32
2024-01-31T02:10:16.960Z,6.20
2024-01-31T02:12:44.921Z,6.50
2024-01-31T02:15:12.787Z,6.90
2024-01-31T02:17:40.728Z,8.02
2024-01-31T02:20:09.403Z,8.30
2024-01-31T02:22:37.521Z,4.72
2024-01-31T02:25:15.207Z,4.63
2024-01-31T02:27:44.187Z,6.78
2024-01-31T02:30:13.058Z,7.10
2024-01-31T02:32:42.246Z,9.93
2024-01-31T02:35:10.511Z,12.40
2024-01-31T02:37:45.494Z,6.43
2024-01-31T02:40:16.271Z,11.65
2024-01-31T02:42:45.878Z,8.50
2024-01-31T02:45:13.974Z,12.30
2024-01-31T02:47:42.028Z,8.88
2024-01-31T02:50:10.578Z,16.17
2024-01-31T02:52:38.623Z,11.23
2024-01-31T02:55:07.614Z,17.70
2024-01-31T02:57:38.371Z,14.05
2024-01-31T03:02:45.203Z,8.55
2024-01-31T03:05:15.246Z,14.27
2024-01-31T03:07:43.384Z,15.45
2024-01-31T03:10:13.056Z,13.60
2024-01-31T03:12:41.170Z,16.00
2024-01-31T03:15:09.265Z,19.80
2024-01-31T03:17:38.413Z,14.15
2024-01-31T03:20:09.140Z,12.45
2024-01-31T03:22:37.173Z,11.40
2024-01-31T03:25:06.873Z,14.15
2024-01-31T03:27:35.801Z,16.25
2024-01-31T03:30:08.963Z,20.38
2024-01-31T03:32:39.580Z,9.85
2024-01-31T03:35:08.236Z,14.35
2024-01-31T03:37:36.958Z,21.80
2024-01-31T03:40:10.048Z,22.15
2024-01-31T03:42:38.200Z,10.57
2024-01-31T03:45:07.329Z,19.63
2024-01-31T03:47:37.123Z,21.00
2024-01-31T03:50:06.608Z,14.52
2024-01-31T03:52:36.926Z,11.02
2024-01-31T03:55:05.408Z,20.35
2024-01-31T03:57:33.657Z,10.90
2024-01-31T04:00:06.616Z,9.45
2024-01-31T04:05:04.960Z,13.23
2024-01-31T04:07:33.451Z,7.40
2024-01-31T04:10:01.706Z,5.40
2024-01-31T04:12:30.012Z,9.30
2024-01-31T04:14:58.436Z,10.93
2024-01-31T04:17:26.379Z,8.18
2024-01-31T04:19:54.675Z,25.58
2024-01-31T04:22:22.712Z,20.42
2024-01-31T04:24:51.105Z,6.43
2024-01-31T04:27:19.097Z,10.93
2024-01-31T04:29:47.684Z,5.82
2024-01-31T04:32:15.609Z,11.93
2024-01-31T04:34:43.765Z,12.57
2024-01-31T04:37:11.734Z,16.42
2024-01-31T04:39:39.722Z,9.82
2024-01-31T04:42:08.084Z,6.57
2024-01-31T04:44:36.281Z,7.88
2024-01-31T04:47:06.207Z,8.40
2024-01-31T04:49:34.237Z,13.60
2024-01-31T04:52:02.286Z,12.20
2024-01-31T04:54:30.409Z,13.13
2024-01-31T04:56:58.351Z,9.45
2024-01-31T04:59:26.696Z,8.75
2024-01-31T05:01:55.364Z,5.72
2024-01-31T05:04:23.498Z,8.30
2024-01-31T05:06:51.498Z,6.88
2024-01-31T05:09:20.574Z,14.70
2024-01-31T05:11:51.713Z,12.40
2024-01-31T05:14:20.265Z,11.25
2024-01-31T05:16:48.467Z,10.43
2024-01-31T05:19:16.669Z,14.57
2024-01-31T05:21:54.003Z,8.48
2024-01-31T05:24:21.922Z,12.80
2024-01-31T05:26:51.282Z,10.20
2024-01-31T05:29:19.268Z,10.20
2024-01-31T05:31:47.425Z,10.32
2024-01-31T05:34:15.432Z,8.65
2024-01-31T05:36:43.361Z,8.88
2024-01-31T05:39:12.272Z,14.13
2024-01-31T05:41:45.886Z,6.00
2024-01-31T05:44:14.439Z,15.90
2024-01-31T05:46:42.638Z,5.95
2024-01-31T05:49:10.734Z,18.73
2024-01-31T05:51:38.787Z,9.15
2024-01-31T05:56:36.344Z,11.45
2024-01-31T05:59:04.351Z,14.57
2024-01-31T06:01:32.262Z,17.35
2024-01-31T06:04:00.400Z,12.15
2024-01-31T06:06:28.894Z,15.82
2024-01-31T06:08:57.329Z,13.27
2024-01-31T06:11:25.424Z,15.32
2024-01-31T06:13:53.555Z,11.57
2024-01-31T06:16:21.898Z,14.20
2024-01-31T06:18:50.048Z,8.60
2024-01-31T06:21:18.239Z,10.38
2024-01-31T06:23:47.727Z,15.25
2024-01-31T06:26:17.525Z,16.77
2024-01-31T06:28:45.609Z,11.98
2024-01-31T06:31:25.342Z,16.60
2024-01-31T06:33:53.555Z,6.43
2024-01-31T06:36:22.744Z,9.07
2024-01-31T06:38:50.958Z,9.60
2024-01-31T06:41:21.007Z,16.63
2024-01-31T06:43:49.699Z,10.77
2024-01-31T06:46:19.810Z,19.83
2024-01-31T06:48:47.918Z,9.93
2024-01-31T06:51:15.953Z,21.02
2024-01-31T06:53:45.509Z,14.73
2024-01-31T06:56:18.228Z,13.45
2024-01-31T06:58:50.949Z,9.13
2024-01-31T07:01:19.289Z,13.77
2024-01-31T07:03:47.763Z,18.00
2024-01-31T07:06:19.507Z,16.45
2024-01-31T07:08:47.459Z,14.70
2024-01-31T07:11:15.924Z,7.75
2024-01-31T07:13:44.346Z,14.77
2024-01-31T07:16:13.538Z,19.58
2024-01-31T07:18:43.302Z,14.00
2024-01-31T07:21:15.177Z,13.88
2024-01-31T07:23:44.053Z,8.25
2024-01-31T07:26:22.132Z,18.17
2024-01-31T07:28:50.230Z,10.98
2024-01-31T07:31:19.246Z,11.13
2024-01-31T07:33:48.854Z,15.32
2024-01-31T07:36:18.143Z,7.85
2024-01-31T07:38:47.582Z,14.57
2024-01-31T07:41:19.195Z,13.95
2024-01-31T07:43:47.284Z,21.08
2024-01-31T07:46:15.350Z,15.90
2024-01-31T07:48:43.460Z,15.20
2024-01-31T07:51:12.314Z,15.27
2024-01-31T07:53:40.406Z,9.10
2024-01-31T07:56:10.964Z,18.00
2024-01-31T07:58:40.000Z,11.45
2024-01-31T08:01:08.762Z,16.52
2024-01-31T08:03:40.600Z,17.95
2024-01-31T08:06:09.116Z,19.17
2024-01-31T08:08:38.867Z,14.68
2024-01-31T08:11:07.599Z,18.98
2024-01-31T08:13:35.856Z,15.25
2024-01-31T08:16:03.972Z,12.95
2024-01-31T08:18:32.269Z,16.05
2024-01-31T08:21:00.248Z,15.05
2024-01-31T08:23:28.632Z,21.92
2024-01-31T08:25:58.477Z,20.65
2024-01-31T08:28:26.619Z,12.60
2024-01-31T08:30:54.886Z,18.52
2024-01-31T08:33:23.725Z,18.85
2024-01-31T08:35:51.773Z,21.75
2024-01-31T08:38:20.338Z,21.98
2024-01-31T08:40:48.997Z,13.25
2024-01-31T08:43:17.082Z,11.63
2024-01-31T08:45:45.593Z,15.93
2024-01-31T08:48:13.605Z,20.40
2024-01-31T08:50:41.830Z,24.23
2024-01-31T08:53:10.945Z,20.90
2024-01-31T08:55:39.649Z,15.00
2024-01-31T08:58:07.816Z,18.70
2024-01-31T09:00:42.027Z,14.80
2024-01-31T09:03:10.070Z,20.83
2024-01-31T09:05:38.186Z,17.80
2024-01-31T09:08:06.736Z,11.68
2024-01-31T09:10:34.796Z,14.85
2024-01-31T09:13:02.854Z,19.17
2024-01-31T09:15:30.802Z,13.80
2024-01-31T09:17:58.749Z,12.60
2024-01-31T09:20:26.772Z,15.38
2024-01-31T09:22:55.148Z,15.45
2024-01-31T09:25:23.318Z,20.30
2024-01-31T09:27:51.343Z,11.68
2024-01-31T09:30:20.292Z,9.30
2024-01-31T09:32:48.816Z,11.15
2024-01-31T09:35:17.065Z,16.30
2024-01-31T09:37:47.692Z,10.93
2024-01-31T09:40:17.232Z,15.82
2024-01-31T09:42:48.565Z,13.32
2024-01-31T09:45:19.778Z,15.18
2024-01-31T09:47:49.623Z,12.00
2024-01-31T09:50:20.024Z,13.55
2024-01-31T09:52:54.354Z,10.13
2024-01-31T09:55:27.595Z,14.10
2024-01-31T09:57:57.153Z,9.60
2024-01-31T10:00:28.200Z,19.70
2024-01-31T10:02:57.065Z,16.52
2024-01-31T10:05:25.178Z,11.75
2024-01-31T10:08:02.049Z,11.60
2024-01-31T10:10:31.986Z,13.15
2024-01-31T10:13:01.902Z,16.60
2024-01-31T10:15:30.753Z,11.50
2024-01-31T10:17:58.878Z,11.50
2024-01-31T10:20:27.840Z,16.58
2024-01-31T10:22:55.968Z,15.98
2024-01-31T10:25:24.080Z,8.80
2024-01-31T10:27:53.881Z,9.98
2024-01-31T10:30:22.695Z,9.90
2024-01-31T10:32:52.589Z,8.27
2024-01-31T10:35:33.752Z,7.28
2024-01-31T10:38:11.318Z,7.53
2024-01-31T10:40:42.208Z,5.82
2024-01-31T10:43:13.332Z,10.40
2024-01-31T10:45:44.170Z,15.20
2024-01-31T10:48:12.502Z,8.30
2024-01-31T10:50:42.374Z,8.82
2024-01-31T10:53:12.426Z,4.95
2024-01-31T10:55:42.519Z,12.77
2024-01-31T10:58:14.491Z,14.32
2024-01-31T11:00:49.476Z,9.30
2024-01-31T11:03:21.493Z,10.05
2024-01-31T11:05:51.301Z,10.80
2024-01-31T11:08:24.374Z,7.25
2024-01-31T11:10:52.688Z,5.40
2024-01-31T11:13:21.469Z,4.53
2024-01-31T11:15:50.235Z,10.43
2024-01-31T11:18:18.581Z,14.02
2024-01-31T11:20:52.355Z,6.47
2024-01-31T11:23:23.670Z,8.32
2024-01-31T11:25:55.144Z,10.40
2024-01-31T11:28:28.404Z,9.55
2024-01-31T11:30:57.124Z,8.88
2024-01-31T11:33:25.649Z,4.32
2024-01-31T11:35:53.837Z,6.93
2024-01-31T11:38:22.695Z,7.38
2024-01-31T11:40:51.708Z,10.30
2024-01-31T11:43:20.003Z,9.57
2024-01-31T11:45:49.099Z,3.17
2024-01-31T11:48:17.452Z,8.02
2024-01-31T11:50:45.715Z,7.85
2024-01-31T11:53:15.126Z,9.75
2024-01-31T11:55:43.040Z,4.03
2024-01-31T11:58:12.716Z,8.55
2024-01-31T12:00:40.749Z,5.90
2024-01-31T12:03:09.154Z,10.27
2024-01-31T12:05:37.213Z,4.47
2024-01-31T12:08:06.437Z,11.18
2024-01-31T12:10:34.462Z,7.28
2024-01-31T12:13:02.700Z,6.40
2024-01-31T12:15:32.376Z,5.05
2024-01-31T12:18:02.683Z,5.50
2024-01-31T12:20:32.480Z,8.98
2024-01-31T12:23:00.948Z,10.63
2024-01-31T12:25:28.981Z,4.30
2024-01-31T12:27:57.004Z,6.22
2024-01-31T12:30:25.767Z,2.85
2024-01-31T12:32:54.086Z,8.63
2024-01-31T12:35:23.771Z,7.65
2024-01-31T12:37:52.087Z,5.97
2024-01-31T12:40:20.321Z,6.03
2024-01-31T12:42:49.018Z,6.93
2024-01-31T12:45:17.508Z,6.95
2024-01-31T12:47:48.480Z,9.93
2024-01-31T12:50:18.387Z,7.57
2024-01-31T12:52:47.035Z,6.15
2024-01-31T12:55:15.823Z,3.55
2024-01-31T12:57:44.728Z,8.68
2024-01-31T13:00:13.275Z,6.80
2024-01-31T13:02:41.564Z,5.20
2024-01-31T13:05:10.431Z,2.65
2024-01-31T13:07:38.908Z,9.27
2024-01-31T13:10:08.317Z,9.23
2024-01-31T13:12:36.484Z,7.45
2024-01-31T13:15:05.308Z,11.00
2024-01-31T13:17:34.850Z,8.48
2024-01-31T13:20:04.700Z,6.93
2024-01-31T13:22:32.701Z,5.90
2024-01-31T13:25:00.765Z,5.45
2024-01-31T13:27:28.975Z,8.73
2024-01-31T13:29:57.034Z,6.30
2024-01-31T13:32:25.541Z,5.03
2024-01-31T13:34:53.862Z,4.15
2024-01-31T13:37:22.095Z,10.40
2024-01-31T13:39:50.000Z,6.97
2024-01-31T13:42:19.502Z,9.25
2024-01-31T13:44:47.489Z,6.13
2024-01-31T13:47:15.774Z,10.52
2024-01-31T13:49:43.795Z,7.68
2024-01-31T13:52:11.844Z,6.38
2024-01-31T13:54:39.735Z,8.45
2024-01-31T13:57:08.735Z,9.50
2024-01-31T13:59:36.709Z,7.90
2024-01-31T14:02:05.106Z,7.10
2024-01-31T14:04:33.127Z,6.60
2024-01-31T14:07:00.991Z,9.10
2024-01-31T14:09:28.885Z,9.15
2024-01-31T14:11:58.009Z,8.95
2024-01-31T14:14:26.406Z,8.90
2024-01-31T14:16:55.116Z,6.95
2024-01-31T14:19:23.634Z,6.45
2024-01-31T14:21:54.082Z,10.27
2024-01-31T14:24:26.798Z,10.85
2024-01-31T14:26:57.389Z,6.95
2024-01-31T14:29:25.527Z,7.68
2024-01-31T14:31:54.213Z,7.70
2024-01-31T14:34:22.576Z,11.68
2024-01-31T14:36:50.789Z,6.82
2024-01-31T14:39:18.669Z,10.77
2024-01-31T14:41:48.406Z,11.57
2024-01-31T14:44:16.740Z,8.43
2024-01-31T14:46:45.977Z,7.90
2024-01-31T14:49:14.637Z,14.02
2024-01-31T14:51:42.729Z,16.30
2024-01-31T14:54:11.618Z,10.35
2024-01-31T14:56:54.140Z,20.02
2024-01-31T14:59:23.288Z,8.60
2024-01-31T15:01:52.117Z,8.02
2024-01-31T15:04:20.304Z,11.25
2024-01-31T15:06:48.464Z,6.38
2024-01-31T15:09:17.064Z,6.13
2024-01-31T15:11:46.107Z,7.28
2024-01-31T15:14:14.500Z,10.35
2024-01-31T15:16:43.504Z,11.23
2024-01-31T15:19:11.722Z,10.82
2024-01-31T15:21:41.366Z,14.25
2024-01-31T15:24:10.058Z,12.07
2024-01-31T15:26:38.053Z,8.98
2024-01-31T15:29:06.031Z,30.70
2024-01-31T15:31:34.090Z,14.18
2024-01-31T15:34:02.435Z,13.80
2024-01-31T15:36:31.165Z,8.30
2024-01-31T15:39:02.041Z,9.90
2024-01-31T15:41:30.156Z,8.10
2024-01-31T15:43:58.094Z,11.00
2024-01-31T15:46:28.127Z,11.52
2024-01-31T15:48:56.201Z,12.32
2024-01-31T15:51:25.923Z,12.05
2024-01-31T15:53:54.410Z,10.80
2024-01-31T15:56:23.138Z,10.63
2024-01-31T15:58:51.210Z,16.67
2024-01-31T16:01:20.374Z,11.90
2024-01-31T16:03:48.659Z,12.65
2024-01-31T16:06:16.986Z,8.50
2024-01-31T16:08:45.320Z,11.88
2024-01-31T16:11:14.162Z,9.20
2024-01-31T16:13:42.787Z,10.75
2024-01-31T16:16:10.823Z,9.48
2024-01-31T16:18:39.224Z,9.23
2024-01-31T16:21:11.763Z,13.07
2024-01-31T16:23:41.431Z,11.45
2024-01-31T16:26:09.412Z,8.55
2024-01-31T16:28:37.580Z,9.30
2024-01-31T16:31:05.947Z,9.35
2024-01-31T16:33:34.587Z,10.32
2024-01-31T16:36:02.961Z,9.90
2024-01-31T16:38:31.076Z,9.27
2024-01-31T16:40:59.265Z,10.20
2024-01-31T16:43:28.094Z,11.80
2024-01-31T16:45:56.085Z,13.60
2024-01-31T16:48:24.146Z,10.23
2024-01-31T16:50:52.551Z,13.15
2024-01-31T16:53:20.561Z,11.85
2024-01-31T16:55:49.770Z,11.27
2024-01-31T16:58:17.760Z,11.77
2024-01-31T17:00:45.773Z,11.32
2024-01-31T17:03:14.042Z,10.98
2024-01-31T17:05:42.148Z,10.32
2024-01-31T17:08:10.027Z,11.45
2024-01-31T17:10:38.150Z,13.95
2024-01-31T17:13:07.463Z,11.25
2024-01-31T17:15:35.468Z,14.57
2024-01-31T17:18:04.937Z,12.80
2024-01-31T17:20:34.593Z,13.93
2024-01-31T17:23:02.616Z,11.88
2024-01-31T17:25:33.010Z,12.82
2024-01-31T17:28:01.715Z,14.02
2024-01-31T17:30:30.770Z,12.98
2024-01-31T17:32:59.112Z,14.05
2024-01-31T17:35:27.222Z,12.05
2024-01-31T17:37:57.602Z,12.55
2024-01-31T17:40:25.595Z,13.70
2024-01-31T17:42:54.459Z,14.88
2024-01-31T17:45:22.723Z,13.13
2024-01-31T17:47:52.737Z,13.40
2024-01-31T17:50:22.464Z,13.18
2024-01-31T17:52:50.580Z,13.30
2024-01-31T17:55:21.518Z,15.30
2024-01-31T17:57:50.249Z,12.52
2024-01-31T18:00:20.606Z,15.02
2024-01-31T18:02:50.922Z,13.65
2024-01-31T18:05:19.217Z,17.23
2024-01-31T18:07:47.216Z,13.57
2024-01-31T18:10:15.276Z,14.07
2024-01-31T18:12:44.064Z,12.65
2024-01-31T18:15:19.633Z,13.63
2024-01-31T18:17:49.030Z,16.70
2024-01-31T18:20:17.232Z,14.77
2024-01-31T18:22:46.227Z,15.20
2024-01-31T18:25:14.452Z,14.55
2024-01-31T18:27:43.192Z,16.15
2024-01-31T18:30:11.817Z,16.02
2024-01-31T18:32:39.956Z,19.48
2024-01-31T18:35:08.798Z,16.63
2024-01-31T18:37:36.984Z,18.98
2024-01-31T18:40:05.995Z,22.65
2024-01-31T18:42:35.940Z,22.67
2024-01-31T18:45:07.490Z,20.77
2024-01-31T18:47:37.201Z,17.25
2024-01-31T18:50:05.853Z,20.88
2024-01-31T18:52:33.961Z,17.90
2024-01-31T18:55:04.845Z,20.83
2024-01-31T18:57:33.187Z,22.85
2024-01-31T19:00:01.388Z,23.13
2024-01-31T19:02:29.979Z,22.40
2024-01-31T19:05:02.769Z,25.17
2024-01-31T19:07:34.149Z,19.50
2024-01-31T19:10:02.579Z,24.48
2024-01-31T19:12:31.129Z,21.17
2024-01-31T19:14:59.149Z,18.50
2024-01-31T19:17:30.600Z,20.92
2024-01-31T19:20:02.025Z,22.25
2024-01-31T19:22:30.864Z,18.98
2024-01-31T19:24:59.577Z,25.45
2024-01-31T19:27:27.791Z,20.67
2024-01-31T19:29:56.509Z,23.75
2024-01-31T19:32:25.033Z,18.67
2024-01-31T19:34:53.209Z,21.88
2024-01-31T19:37:21.152Z,22.02
2024-01-31T19:39:49.067Z,19.10
2024-01-31T19:42:17.146Z,18.58
2024-01-31T19:44:45.418Z,19.13
2024-01-31T19:47:15.951Z,18.20
2024-01-31T19:49:43.905Z,15.68
2024-01-31T19:52:11.861Z,15.82
2024-01-31T19:54:43.042Z,18.17
2024-01-31T19:57:13.406Z,17.45
2024-01-31T19:59:41.995Z,19.27
2024-01-31T20:02:10.387Z,19.75
2024-01-31T20:04:38.844Z,19.80
2024-01-31T20:07:09.328Z,17.02
2024-01-31T20:09:38.270Z,22.83
2024-01-31T20:12:06.776Z,20.48
2024-01-31T20:14:34.889Z,16.50
2024-01-31T20:17:04.785Z,17.42
2024-01-31T20:19:32.768Z,18.40
2024-01-31T20:22:00.912Z,17.15
2024-01-31T20:24:32.224Z,24.65
2024-01-31T20:27:00.701Z,24.35
2024-01-31T20:29:29.390Z,18.27
2024-01-31T20:31:56.314Z,17.38
2024-01-31T20:34:24.252Z,19.75
2024-01-31T20:36:52.932Z,17.45
2024-01-31T20:39:20.821Z,17.77
2024-01-31T20:41:48.933Z,16.60
2024-01-31T20:44:17.603Z,21.25
2024-01-31T20:46:45.633Z,15.90
2024-01-31T20:49:13.928Z,13.77
2024-01-31T20:51:43.681Z,20.60
2024-01-31T20:54:12.408Z,15.23
2024-01-31T20:56:40.373Z,17.20
2024-01-31T20:59:08.348Z,15.95
2024-01-31T21:01:36.407Z,14.35
2024-01-31T21:04:07.543Z,14.27
2024-01-31T21:06:35.814Z,16.30
2024-01-31T21:09:04.439Z,12.18
2024-01-31T21:11:36.947Z,14.68
2024-01-31T21:14:04.960Z,12.52
2024-01-31T21:16:33.006Z,14.60
2024-01-31T21:19:01.135Z,11.05
2024-01-31T21:21:30.393Z,15.30
2024-01-31T21:24:00.560Z,15.15
2024-01-31T21:26:29.490Z,14.38
2024-01-31T21:28:57.478Z,13.60
2024-01-31T21:31:25.629Z,15.77
2024-01-31T21:33:53.954Z,17.08
2024-01-31T21:36:22.030Z,17.20
2024-01-31T21:38:50.015Z,15.45
2024-01-31T21:41:19.664Z,14.60
2024-01-31T21:43:47.619Z,12.57
2024-01-31T21:46:16.313Z,17.30
2024-01-31T21:48:44.389Z,14.93
2024-01-31T21:51:13.211Z,18.95
2024-01-31T21:53:41.283Z,13.00
2024-01-31T21:56:09.401Z,17.02
2024-01-31T21:58:37.313Z,12.35
2024-01-31T22:01:06.372Z,15.75
2024-01-31T22:03:46.364Z,14.00
2024-01-31T22:06:22.355Z,14.32
2024-01-31T22:08:50.415Z,17.90
2024-01-31T22:11:19.094Z,19.20
2024-01-31T22:13:47.014Z,18.25
2024-01-31T22:16:15.084Z,23.38
2024-01-31T22:18:43.479Z,21.83
2024-01-31T22:21:11.604Z,23.40
2024-01-31T22:23:39.876Z,24.17
2024-01-31T22:26:09.544Z,23.98
2024-01-31T22:28:37.537Z,25.83
2024-01-31T22:31:09.432Z,21.38
2024-01-31T22:33:38.759Z,28.23
2024-01-31T22:36:09.623Z,26.67
2024-01-31T22:38:39.032Z,31.60
2024-01-31T22:41:06.977Z,26.10
2024-01-31T22:43:36.539Z,28.42
2024-01-31T22:46:04.527Z,27.92
2024-01-31T22:48:32.805Z,25.23
2024-01-31T22:51:01.340Z,29.35
2024-01-31T22:53:30.312Z,29.35
2024-01-31T22:55:58.643Z,32.47
2024-01-31T22:58:27.203Z,27.85
2024-01-31T23:00:55.212Z,28.23
2024-01-31T23:03:26.876Z,33.33
2024-01-31T23:05:56.782Z,35.22
2024-01-31T23:08:25.348Z,30.58
2024-01-31T23:10:53.667Z,35.42
2024-01-31T23:13:20.701Z,34.45
2024-01-31T23:15:48.977Z,42.00
2024-01-31T23:18:17.035Z,31.30
2024-01-31T23:20:45.689Z,31.52
2024-01-31T23:23:15.129Z,32.58
2024-01-31T23:25:43.113Z,34.65
2024-01-31T23:28:11.252Z,35.55
2024-01-31T23:30:39.231Z,37.22
2024-01-31T23:33:07.186Z,33.60
2024-01-31T23:35:35.262Z,36.50
2024-01-31T23:38:03.209Z,32.97
2024-01-31T23:40:31.381Z,33.15
2024-01-31T23:42:59.336Z,39.33
2024-01-31T23:45:27.313Z,36.13
2024-01-31T23:47:55.440Z,32.67
2024-01-31T23:50:26.378Z,38.22
2024-01-31T23:52:54.839Z,36.28
2024-01-31T23:55:22.851Z,41.63
2024-01-31T23:57:50.842Z,34.03
